Station: Sunshine Coast Airport  

  Atmospheric Gas Attenuation - ITU Rec 676-11   ----------------- dB/100km -----------------
Date Time Temp RH % AH g/m3 Dew Point Wind Direction Speed kph Gust kph Barometer mB Rainfall Since 9am 24GHz 47GHz 76GHz 122GHz 134GHz 241GHz
10/05 10:00 22.7 61 12.32 15 22 33 1025.9 0 27.0 29.7 50.4 132.6 135.6 469.6
10/05 09:50 22.4 62 12.31 14.8 26 33 1026 0 27.0 29.7 50.5 133.0 136.0 470.9
10/05 09:40 22.7 64 12.93 15.5 20 24 1026.1 0 28.2 30.7 52.9 139.3 143.8 498.3
10/05 09:30 22.5 62 12.38 14.9 24 33 1026.1 0 27.1 29.8 50.8 133.6 136.8 473.6
10/05 09:20 21.9 63 12.16 14.5 28 32 1026.2 0 26.7 29.7 50.2 132.3 134.9 467.0
10/05 09:10 21.5 62 11.69 13.9 28 32 1026 0 25.7 29.0 48.6 127.8 129.3 447.3
10/05 09:00 21.6 63 11.95 14.3 24 32 1025.7 0 26.2 29.4 49.6 130.4 132.5 458.7
10/05 08:50 21.4 64 12 14.3 24 28 1025.7 0 26.4 29.6 49.9 131.3 133.5 462.2
10/05 08:40 20.9 63 11.47 13.6 28 33 1025.7 0 25.3 28.9 48.0 126.4 127.3 440.3
10/05 08:30 20.9 63 11.47 13.6 24 32 1025.5 0 25.3 28.8 48.0 126.3 127.3 440.3
10/05 08:20 20.5 63 11.21 13.2 26 30 1025.6 0 24.8 28.6 47.2 124.2 124.5 430.4
10/05 08:10 19.8 65 11.1 13 19 22 1025.5 0 24.6 28.6 47.2 124.1 124.1 429.1
10/05 08:00 19.8 63 10.76 12.6 20 28 1025.4 0 23.8 28.0 45.8 120.4 119.6 413.3
10/05 07:50 19.6 63 10.63 12.4 19 20 1025.3 0 23.6 27.9 45.4 119.3 118.2 408.3
10/05 07:40 19.2 64 10.55 12.2 17 19 1025.1 0 23.4 27.9 45.3 119.0 117.7 406.6
10/05 07:30 18.9 65 10.53 12.2 17 20 1025 0 23.4 27.9 45.4 119.2 117.9 407.2
10/05 07:20 18.5 65 10.28 11.8 17 20 1024.9 0 22.9 27.6 44.6 117.1 115.2 397.7
10/05 07:10 18.1 68 10.51 12.1 20 24 1024.9 0 23.4 28.1 45.7 120.2 118.8 410.4
10/05 07:00 17.9 70 10.69 12.4 20 24 1024.4 0 23.8 28.5 46.6 122.4 121.5 419.8
10/05 06:49 18 69 10.6 12.2 20 22 1024.4 0 23.6 28.3 46.2 121.3 120.1 415.0
10/05 06:40 18 67 10.29 11.8 20 26 1024.4 0 23.0 27.8 44.9 117.9 116.0 400.5
10/05 06:30 17.8 70 10.62 12.3 17 22 1024.1 0 23.7 28.4 46.3 121.8 120.7 416.9
10/05 06:20 17.1 76 11.06 12.8 11 13 1024.1 0 24.6 29.4 48.6 127.8 127.8 441.8
10/05 06:10 16.8 79 11.29 13.1 13 15 1024.1 0 25.2 29.9 49.8 130.9 131.6 454.7
10/05 06:00 16.9 77 11.07 12.8 22 33 1024.1 0 24.7 29.4 48.8 128.2 128.3 443.4
10/05 05:49 18.1 66 10.2 11.7 22 26 1023.9 0 22.8 27.6 44.4 116.8 114.6 395.7
10/05 05:39 17.8 66 10.02 11.4 20 24 1023.8 0 22.4 27.4 43.9 115.3 112.7 388.8
10/05 05:30 17.8 67 10.17 11.6 20 30 1023.5 0 22.7 27.6 44.5 116.8 114.6 395.6
10/05 05:20 17.4 71 10.52 12.1 17 19 1023.5 0 23.5 28.3 46.1 121.2 119.9 414.1
10/05 05:10 16.9 74 10.64 12.2 11 13 1023.6 0 23.8 28.7 46.9 123.4 122.3 422.5
10/05 05:00 17 74 10.71 12.3 11 17 1023.4 0 23.9 28.8 47.2 124.0 123.1 425.3
10/05 04:49 16.7 76 10.8 12.5 11 11 1023.4 0 24.1 29.0 47.7 125.4 124.8 431.3
10/05 04:40 16.4 78 10.89 12.6 11 13 1023.5 0 24.3 29.3 48.3 127.0 126.6 437.3
10/05 04:30 16.4 78 10.89 12.6 13 20 1023.3 0 24.3 29.3 48.3 126.9 126.6 437.2
10/05 04:20 15.7 85 11.37 13.2 11 13 1023.3 0 25.4 30.3 50.8 133.6 134.5 464.9
10/05 04:10 14.7 88 11.08 12.7 11 11 1023.1 0 24.8 30.2 50.1 131.9 132.1 456.3
10/05 04:00 14 89 10.74 12.2 11 13 1023 0 24.1 29.8 49.1 129.1 128.4 443.4
10/05 03:50 13.8 90 10.72 12.2 11 13 1023 0 24.1 29.8 49.1 129.2 128.5 443.6
10/05 03:40 14 90 10.86 12.4 9 9 1023 0 24.4 30.0 49.6 130.5 130.1 449.4
10/05 03:30 14.3 92 11.3 13 9 11 1023 0 25.3 30.7 51.4 135.2 136.0 469.8
10/05 03:20 13.8 93 11.08 12.7 7 9 1023.1 0 24.9 30.5 50.7 133.5 133.7 461.7
10/05 03:10 13.5 93 10.88 12.4 9 11 1023 0 24.5 30.2 50.0 131.6 131.3 453.3
10/05 03:00 13.3 93 10.75 12.2 9 11 1022.9 0 24.2 30.1 49.6 130.4 129.7 447.9
10/05 02:50 13 93 10.55 11.9 7 9 1023.1 0 23.8 29.8 48.9 128.6 127.4 439.6
10/05 02:40 13.1 93 10.61 12 9 9 1023.1 0 23.9 29.9 49.1 129.1 128.1 442.1
10/05 02:30 13.1 93 10.61 12 9 11 1023.1 0 23.9 29.9 49.1 129.1 128.1 442.1
10/05 02:20 13.1 93 10.61 12 9 9 1023.2 0 23.9 29.9 49.1 129.2 128.1 442.1
10/05 02:10 12.5 92 10.12 11.2 7 9 1023.2 0 22.9 29.2 47.3 124.4 122.0 420.9
10/05 02:00 12.6 92 10.18 11.3 9 11 1023.2 0 23.0 29.3 47.5 125.0 122.7 423.4
10/05 01:50 12.9 92 10.37 11.6 7 9 1023.1 0 23.4 29.5 48.2 126.7 125.0 431.2
10/05 01:40 13.4 93 10.81 12.3 9 9 1023.2 0 24.3 30.2 49.8 131.0 130.5 450.5
10/05 01:30 13 92 10.43 11.7 9 9 1023.2 0 23.5 29.6 48.4 127.2 125.7 433.7
10/05 01:20 13.1 92 10.5 11.8 7 9 1023.4 0 23.7 29.7 48.6 127.9 126.5 436.7
10/05 01:10 13 91 10.32 11.6 7 9 1023.4 0 23.3 29.4 47.9 126.0 124.1 428.2
10/05 01:00 13.3 92 10.63 12 9 13 1023.3 0 24.0 29.9 49.1 129.1 128.1 442.0
10/05 00:50 13.5 92 10.76 12.2 9 11 1023.4 0 24.2 30.0 49.5 130.3 129.6 447.4
10/05 00:40 13.2 92 10.56 11.9 9 9 1023.6 0 23.8 29.8 48.9 128.4 127.3 439.2
10/05 00:30 12.9 91 10.26 11.5 6 7 1023.6 0 23.2 29.4 47.7 125.4 123.4 425.8
10/05 00:20 13.1 92 10.5 11.8 6 6 1023.8 0 23.7 29.7 48.7 127.9 126.6 436.8
10/05 00:10 12.9 91 10.26 11.5 9 9 1023.8 0 23.2 29.4 47.7 125.5 123.5 425.9
10/05 00:00 12.9 91 10.26 11.5 6 7 1023.8 0 23.2 29.4 47.7 125.5 123.5 425.9
09/05 23:50 13.1 91 10.38 11.7 0 0 1024 0 23.4 29.5 48.1 126.6 124.9 430.9
09/05 23:40 13.2 90 10.33 11.6 7 9 1023.9 0 23.3 29.4 47.9 125.8 124.0 427.8
09/05 23:30 13 90 10.21 11.4 6 7 1023.8 0 23.1 29.3 47.5 124.7 122.6 422.9
09/05 23:20 12.9 89 10.03 11.1 6 7 1024.1 0 22.7 29.0 46.8 122.8 120.2 414.6
09/05 23:10 13.4 89 10.35 11.6 6 6 1024.1 0 23.3 29.4 47.8 125.7 124.0 427.7
09/05 23:00 13.8 88 10.49 11.8 6 7 1024.1 0 23.6 29.5 48.2 126.7 125.3 432.5
09/05 22:50 14 88 10.61 12 6 7 1024.1 0 23.9 29.6 48.6 127.8 126.7 437.3
09/05 22:40 14.4 88 10.88 12.4 7 9 1024.1 0 24.4 30.0 49.5 130.2 129.9 448.5
09/05 22:30 14.6 88 11.01 12.6 6 7 1024 0 24.7 30.1 49.9 131.4 131.4 453.8
09/05 22:20 14.6 88 11.01 12.6 6 6 1024.2 0 24.7 30.1 50.0 131.4 131.4 453.8
09/05 22:10 14.4 88 10.88 12.4 7 7 1024.3 0 24.4 30.0 49.5 130.2 129.9 448.5
09/05 22:00 14.4 87 10.75 12.3 6 9 1024.1 0 24.1 29.7 49.0 128.7 128.0 442.0
09/05 21:50 14.5 87 10.82 12.4 6 7 1024.2 0 24.3 29.8 49.2 129.4 128.8 444.9
09/05 21:40 14.7 87 10.95 12.6 0 0 1024.2 0 24.6 30.0 49.6 130.5 130.4 450.2
09/05 21:30 14.8 87 11.02 12.7 0 0 1024 0 24.7 30.1 49.9 131.2 131.2 453.1
09/05 21:20 14.8 87 11.02 12.7 0 0 1024.1 0 24.7 30.1 49.9 131.2 131.2 453.1
09/05 21:10 14.8 86 10.89 12.5 0 0 1024.2 0 24.4 29.9 49.3 129.7 129.3 446.7
09/05 21:00 14.8 86 10.89 12.5 7 11 1024.1 0 24.4 29.8 49.3 129.7 129.3 446.6
09/05 20:50 15.1 85 10.97 12.6 9 9 1024.2 0 24.6 29.9 49.5 130.1 130.0 448.9
09/05 20:40 15.2 85 11.03 12.7 9 9 1024.1 0 24.7 30.0 49.7 130.6 130.6 451.3
09/05 20:30 15.2 85 11.03 12.7 9 13 1024 0 24.7 29.9 49.7 130.6 130.6 451.2
09/05 20:20 15.2 83 10.77 12.3 9 9 1024.1 0 24.1 29.5 48.5 127.6 127.0 438.4
09/05 20:10 15.4 83 10.9 12.5 9 11 1024.1 0 24.4 29.7 49.0 128.8 128.5 443.7
09/05 20:00 15.5 82 10.84 12.4 9 13 1023.9 0 24.3 29.5 48.6 127.9 127.4 440.1
09/05 19:50 15.8 80 10.77 12.4 11 13 1023.9 0 24.1 29.3 48.2 126.6 125.9 435.0
09/05 19:40 16.1 79 10.83 12.5 9 9 1023.8 0 24.2 29.3 48.2 126.8 126.3 436.2
09/05 19:30 16.3 78 10.82 12.5 9 9 1023.6 0 24.2 29.2 48.0 126.3 125.8 434.5
09/05 19:20 16.6 78 11.02 12.8 7 9 1023.7 0 24.6 29.4 48.7 128.1 128.1 442.6
09/05 19:10 16.8 77 11.01 12.7 7 7 1023.5 0 24.6 29.4 48.5 127.7 127.6 440.9
09/05 19:00 17.2 75 10.98 12.7 7 9 1023.2 0 24.5 29.2 48.1 126.6 126.5 437.1
09/05 18:50 17.5 75 11.18 13 7 9 1023.3 0 24.9 29.4 48.8 128.4 128.8 445.0
09/05 18:40 17.4 74 10.97 12.7 9 9 1023.1 0 24.4 29.1 48.0 126.2 126.0 435.4
09/05 18:30 17.6 72 10.8 12.5 9 9 1023 0 24.1 28.7 47.1 124.0 123.4 426.2
09/05 18:20 18.1 71 10.97 12.8 9 11 1023 0 24.4 28.8 47.5 125.1 124.9 431.5
09/05 18:10 18.3 70 10.94 12.7 9 9 1022.9 0 24.3 28.7 47.3 124.4 124.1 429.0
09/05 18:00 19.1 68 11.15 13.1 13 17 1022.7 0 24.7 28.8 47.7 125.4 125.6 434.4
09/05 17:50 19.4 68 11.34 13.3 11 13 1022.7 0 25.1 29.0 48.3 127.0 127.7 441.7
09/05 17:40 19.3 68 11.28 13.2 13 15 1022.6 0 25.0 28.9 48.1 126.5 127.1 439.4
09/05 17:30 19.4 67 11.18 13.1 13 17 1022.3 0 24.8 28.7 47.6 125.2 125.5 434.0

Last Refresh: 10-May-2026 09:44:44

Bureau of Meteorology